createdAt,value
2019-03-29T00:00:56.003Z,99.90
2019-03-29T00:03:24.486Z,99.90
2019-03-29T00:05:52.948Z,99.90
2019-03-29T00:08:21.770Z,99.90
2019-03-29T00:10:50.223Z,99.90
2019-03-29T00:13:19.049Z,99.90
2019-03-29T00:15:47.512Z,99.90
2019-03-29T00:18:15.987Z,99.90
2019-03-29T00:20:44.438Z,99.90
2019-03-29T00:23:13.282Z,99.90
2019-03-29T00:25:41.770Z,99.90
2019-03-29T00:28:11.078Z,99.90
2019-03-29T00:30:39.811Z,99.90
2019-03-29T00:33:08.283Z,99.90
2019-03-29T00:35:37.055Z,99.90
2019-03-29T00:38:05.532Z,99.90
2019-03-29T00:40:34.063Z,99.90
2019-03-29T00:43:02.819Z,99.90
2019-03-29T00:45:31.612Z,99.90
2019-03-29T00:48:00.162Z,99.90
2019-03-29T00:50:28.616Z,99.90
2019-03-29T00:52:57.093Z,99.90
2019-03-29T00:55:25.867Z,99.90
2019-03-29T00:57:54.419Z,99.90
2019-03-29T01:00:23.239Z,99.90
2019-03-29T01:02:51.736Z,99.90
2019-03-29T01:05:20.239Z,99.90
2019-03-29T01:07:49.452Z,99.90
2019-03-29T01:10:17.907Z,99.90
2019-03-29T01:12:46.699Z,99.90
2019-03-29T01:15:15.592Z,99.90
2019-03-29T01:17:44.063Z,99.90
2019-03-29T01:20:13.059Z,99.90
2019-03-29T01:22:41.540Z,99.90
2019-03-29T01:25:10.136Z,99.90
2019-03-29T01:27:38.943Z,99.90
2019-03-29T01:30:08.140Z,99.90
2019-03-29T01:32:36.941Z,99.90
2019-03-29T01:35:07.054Z,99.90
2019-03-29T01:37:35.527Z,99.90
2019-03-29T01:40:05.183Z,99.90
2019-03-29T01:42:33.668Z,99.90
2019-03-29T01:45:02.542Z,99.90
2019-03-29T01:47:31.339Z,99.90
2019-03-29T01:49:59.824Z,99.90
2019-03-29T01:52:30.229Z,99.90
2019-03-29T01:54:58.492Z,99.90
2019-03-29T01:57:27.427Z,99.90
2019-03-29T01:59:56.219Z,99.90
2019-03-29T02:02:25.119Z,99.90
2019-03-29T02:04:53.907Z,99.90
2019-03-29T02:07:22.363Z,99.90
2019-03-29T02:09:50.839Z,99.90
2019-03-29T02:12:19.556Z,99.90
2019-03-29T02:14:48.027Z,99.90
2019-03-29T02:17:16.853Z,99.90
2019-03-29T02:19:45.326Z,99.90
2019-03-29T02:22:13.783Z,99.90
2019-03-29T02:24:42.256Z,99.90
2019-03-29T02:27:10.996Z,99.90
2019-03-29T02:29:39.475Z,99.90
2019-03-29T02:32:08.289Z,99.90
2019-03-29T02:34:36.840Z,99.90
2019-03-29T02:37:05.304Z,99.90
2019-03-29T02:39:34.148Z,99.90
2019-03-29T02:42:02.676Z,99.90
2019-03-29T02:44:31.523Z,99.90
2019-03-29T02:47:00.315Z,99.90
2019-03-29T02:49:28.796Z,99.90
2019-03-29T02:51:57.428Z,99.90
2019-03-29T02:54:26.183Z,99.90
2019-03-29T02:56:54.648Z,99.90
2019-03-29T02:59:23.201Z,99.90
2019-03-29T03:01:51.953Z,99.90
2019-03-29T03:04:20.504Z,99.90
2019-03-29T03:06:49.336Z,99.90
2019-03-29T03:09:17.878Z,99.90
2019-03-29T03:11:46.608Z,99.90
2019-03-29T03:14:15.092Z,99.90
2019-03-29T03:16:43.562Z,99.90
2019-03-29T03:19:12.108Z,99.90
2019-03-29T03:21:40.559Z,99.90
2019-03-29T03:24:09.372Z,99.90
2019-03-29T03:26:38.141Z,99.90
2019-03-29T03:29:07.037Z,99.90
2019-03-29T03:31:35.742Z,99.90
2019-03-29T03:34:04.638Z,99.90
2019-03-29T03:36:33.177Z,99.90
2019-03-29T03:39:02.001Z,99.90
2019-03-29T03:41:30.888Z,99.90
2019-03-29T03:43:59.682Z,99.90
2019-03-29T03:46:28.470Z,99.90
2019-03-29T03:48:57.276Z,99.90
2019-03-29T03:51:26.464Z,99.90
2019-03-29T03:53:55.067Z,99.90
2019-03-29T03:56:23.611Z,99.90
2019-03-29T03:58:52.346Z,99.90
2019-03-29T04:01:20.908Z,99.90
2019-03-29T04:03:49.729Z,99.90
2019-03-29T04:06:18.279Z,99.90
2019-03-29T04:08:46.756Z,99.90
2019-03-29T04:11:15.596Z,99.90
2019-03-29T04:13:44.203Z,99.90
2019-03-29T04:16:13.072Z,99.90
2019-03-29T04:18:41.526Z,99.90
2019-03-29T04:21:10.076Z,99.90
2019-03-29T04:23:38.684Z,99.90
2019-03-29T04:26:07.529Z,99.90
2019-03-29T04:28:35.987Z,99.90
2019-03-29T04:31:04.467Z,99.90
2019-03-29T04:33:33.301Z,99.90
2019-03-29T04:36:02.197Z,99.90
2019-03-29T04:38:31.089Z,99.90
2019-03-29T04:40:59.639Z,99.90
2019-03-29T04:43:28.091Z,99.90
2019-03-29T04:45:56.746Z,99.90
2019-03-29T04:48:25.276Z,99.90
2019-03-29T04:50:53.819Z,99.90
2019-03-29T04:53:22.279Z,99.90
2019-03-29T04:55:50.755Z,99.90
2019-03-29T04:58:19.215Z,99.90
2019-03-29T05:00:48.069Z,99.90
2019-03-29T05:03:16.531Z,99.90
2019-03-29T05:05:45.007Z,99.90
2019-03-29T05:08:13.463Z,99.90
2019-03-29T05:10:41.939Z,99.90
2019-03-29T05:13:10.699Z,99.90
2019-03-29T05:15:39.180Z,99.90
2019-03-29T05:18:07.636Z,99.90
2019-03-29T05:20:36.470Z,99.90
2019-03-29T05:23:05.264Z,99.90
2019-03-29T05:25:34.060Z,99.90
2019-03-29T05:28:02.948Z,99.90
2019-03-29T05:30:31.743Z,99.90
2019-03-29T05:33:00.279Z,99.90
2019-03-29T05:35:28.754Z,99.90
2019-03-29T05:37:57.243Z,99.90
2019-03-29T05:40:34.794Z,99.90
2019-03-29T05:42:56.192Z,99.90
2019-03-29T05:45:25.007Z,99.90
2019-03-29T05:47:53.475Z,99.90
2019-03-29T05:50:21.935Z,99.90
2019-03-29T05:52:50.770Z,99.90
2019-03-29T05:55:32.030Z,99.90
2019-03-29T05:57:50.095Z,99.90
2019-03-29T06:00:19.302Z,99.90
2019-03-29T06:02:47.852Z,99.90
2019-03-29T06:05:16.579Z,99.90
2019-03-29T06:07:45.057Z,99.90
2019-03-29T06:10:13.863Z,99.90
2019-03-29T06:12:42.355Z,99.90
2019-03-29T06:15:10.879Z,99.90
2019-03-29T06:17:48.436Z,99.90
2019-03-29T06:20:10.238Z,99.90
2019-03-29T06:22:38.713Z,99.90
2019-03-29T06:25:08.249Z,99.90
2019-03-29T06:27:37.148Z,99.90
2019-03-29T06:30:09.025Z,99.90
2019-03-29T06:32:37.500Z,99.90
2019-03-29T06:35:07.591Z,99.90
2019-03-29T06:37:37.436Z,99.90
2019-03-29T06:40:08.967Z,99.90
2019-03-29T06:42:37.439Z,99.90
2019-03-29T06:45:07.544Z,99.90
2019-03-29T06:47:36.300Z,99.90
2019-03-29T06:50:07.129Z,99.90
2019-03-29T06:52:35.925Z,99.90
2019-03-29T06:55:05.328Z,99.90
2019-03-29T06:57:33.803Z,99.90
2019-03-29T07:00:02.612Z,99.90
2019-03-29T07:02:31.426Z,99.90
2019-03-29T07:04:59.954Z,99.90
2019-03-29T07:07:28.436Z,99.90
2019-03-29T07:09:56.891Z,99.90
2019-03-29T07:12:25.657Z,99.90
2019-03-29T07:14:54.186Z,99.90
2019-03-29T07:17:22.664Z,99.90
2019-03-29T07:19:51.416Z,99.90
2019-03-29T07:22:19.894Z,99.90
2019-03-29T07:24:48.599Z,99.90
2019-03-29T07:27:17.082Z,99.90
2019-03-29T07:29:45.543Z,99.90
2019-03-29T07:32:14.367Z,99.90
2019-03-29T07:34:43.255Z,99.90
2019-03-29T07:37:12.147Z,99.90
2019-03-29T07:39:40.950Z,99.90
2019-03-29T07:42:09.512Z,99.90
2019-03-29T07:44:38.324Z,99.90
2019-03-29T07:47:06.800Z,99.90
2019-03-29T07:49:35.601Z,99.90
2019-03-29T07:52:04.402Z,99.90
2019-03-29T07:54:33.282Z,99.90
2019-03-29T07:57:02.095Z,99.90
2019-03-29T07:59:30.611Z,99.90
2019-03-29T08:01:59.360Z,99.90
2019-03-29T08:04:27.831Z,99.90
2019-03-29T08:06:56.647Z,99.90
2019-03-29T08:09:26.304Z,99.90
2019-03-29T08:11:56.073Z,99.90
2019-03-29T08:14:24.860Z,99.90
2019-03-29T08:16:53.314Z,99.90
2019-03-29T08:19:21.795Z,99.90
2019-03-29T08:21:50.319Z,99.90
2019-03-29T08:24:18.788Z,99.90
2019-03-29T08:26:47.243Z,99.90
2019-03-29T08:29:16.090Z,99.90
2019-03-29T08:31:44.615Z,99.90
2019-03-29T08:34:13.468Z,99.90
2019-03-29T08:36:41.918Z,99.90
2019-03-29T08:39:10.482Z,98.70
2019-03-29T08:41:39.435Z,99.10
2019-03-29T08:44:11.680Z,99.90
2019-03-29T08:46:38.970Z,99.90
2019-03-29T08:49:07.512Z,99.90
2019-03-29T08:51:35.971Z,99.90
2019-03-29T08:54:04.779Z,99.90
2019-03-29T08:56:33.239Z,96.30
2019-03-29T08:59:05.287Z,95.80
2019-03-29T09:01:34.180Z,95.50
2019-03-29T09:04:05.697Z,97.20
2019-03-29T09:06:33.904Z,97.20
2019-03-29T09:09:03.118Z,95.80
2019-03-29T09:11:31.580Z,96.60
2019-03-29T09:14:00.059Z,95.80
2019-03-29T09:16:28.521Z,94.30
2019-03-29T09:18:56.999Z,93.40
2019-03-29T09:21:25.848Z,90.30
2019-03-29T09:23:54.750Z,88.90
2019-03-29T09:26:23.644Z,88.20
2019-03-29T09:28:52.539Z,91.40
2019-03-29T09:31:20.997Z,90.10
2019-03-29T09:33:49.468Z,86.50
2019-03-29T09:36:17.928Z,84.80
2019-03-29T09:38:46.679Z,85.60
2019-03-29T09:41:15.307Z,84.50
2019-03-29T09:43:43.787Z,82.70
2019-03-29T09:46:12.551Z,86.80
2019-03-29T09:48:41.351Z,86.20
2019-03-29T09:51:09.877Z,86.80
2019-03-29T09:53:41.179Z,89.00
2019-03-29T09:56:09.161Z,87.80
2019-03-29T09:58:37.635Z,89.10
2019-03-29T10:01:06.435Z,88.10
2019-03-29T10:03:34.991Z,86.10
2019-03-29T10:06:03.701Z,87.70
2019-03-29T10:08:32.180Z,87.00
2019-03-29T10:11:00.631Z,86.10
2019-03-29T10:13:29.375Z,83.50
2019-03-29T10:15:57.867Z,82.30
2019-03-29T10:18:26.342Z,83.30
2019-03-29T10:20:55.142Z,82.40
2019-03-29T10:23:24.051Z,80.00
2019-03-29T10:25:53.048Z,81.40
2019-03-29T10:28:21.827Z,84.10
2019-03-29T10:30:50.303Z,80.80
2019-03-29T10:33:19.099Z,83.20
2019-03-29T10:35:52.682Z,82.70
2019-03-29T10:38:18.669Z,81.40
2019-03-29T10:40:47.347Z,78.50
2019-03-29T10:43:15.806Z,79.00
2019-03-29T10:45:44.712Z,82.20
2019-03-29T10:48:13.247Z,79.50
2019-03-29T10:50:41.722Z,83.60
2019-03-29T10:53:10.471Z,80.40
2019-03-29T10:55:38.948Z,79.00
2019-03-29T10:58:09.749Z,76.40
2019-03-29T11:00:39.615Z,77.60
2019-03-29T11:03:09.023Z,73.60
2019-03-29T11:05:37.871Z,73.30
2019-03-29T11:08:06.717Z,74.80
2019-03-29T11:10:37.510Z,68.30
2019-03-29T11:13:13.154Z,66.10
2019-03-29T11:15:36.307Z,70.20
2019-03-29T11:18:05.607Z,73.00
2019-03-29T11:20:34.362Z,71.20
2019-03-29T11:23:03.159Z,69.40
2019-03-29T11:25:31.947Z,68.40
2019-03-29T11:28:00.735Z,70.00
2019-03-29T11:30:41.507Z,67.30
2019-03-29T11:32:59.399Z,63.90
2019-03-29T11:35:27.943Z,70.00
2019-03-29T11:37:56.742Z,60.10
2019-03-29T11:40:25.294Z,56.80
2019-03-29T11:42:53.751Z,54.50
2019-03-29T11:45:22.319Z,58.40
2019-03-29T11:47:51.079Z,56.40
2019-03-29T11:50:19.875Z,60.00
2019-03-29T11:52:48.360Z,59.00
2019-03-29T11:55:17.256Z,60.60
2019-03-29T11:57:45.715Z,62.90
2019-03-29T12:00:15.791Z,63.60
2019-03-29T12:02:44.253Z,62.20
2019-03-29T12:05:13.148Z,53.20
2019-03-29T12:07:41.940Z,62.40
2019-03-29T12:10:10.493Z,53.10
2019-03-29T12:12:39.216Z,56.10
2019-03-29T12:15:09.035Z,58.00
2019-03-29T12:17:37.919Z,59.00
2019-03-29T12:20:07.596Z,58.80
2019-03-29T12:22:36.321Z,55.90
2019-03-29T12:25:07.371Z,62.60
2019-03-29T12:27:35.827Z,63.50
2019-03-29T12:30:07.220Z,64.50
2019-03-29T12:32:36.109Z,72.70
2019-03-29T12:35:09.763Z,58.70
2019-03-29T12:37:37.620Z,59.40
2019-03-29T12:40:07.432Z,60.20
2019-03-29T12:42:35.962Z,58.30
2019-03-29T12:45:05.861Z,59.50
2019-03-29T12:47:34.699Z,61.70
2019-03-29T12:50:04.209Z,65.80
2019-03-29T12:52:32.687Z,59.50
2019-03-29T12:55:01.492Z,55.30
2019-03-29T12:57:30.384Z,49.40
2019-03-29T12:59:59.176Z,51.10
2019-03-29T13:02:27.655Z,52.60
2019-03-29T13:04:56.111Z,54.20
2019-03-29T13:07:24.592Z,57.40
2019-03-29T13:09:53.050Z,52.60
2019-03-29T13:12:21.808Z,50.30
2019-03-29T13:14:50.613Z,57.60
2019-03-29T13:17:19.499Z,59.50
2019-03-29T13:19:48.027Z,68.90
2019-03-29T13:22:16.880Z,64.30
2019-03-29T13:24:45.671Z,60.70
2019-03-29T13:27:14.156Z,55.50
2019-03-29T13:29:42.615Z,50.70
2019-03-29T13:32:11.088Z,49.60
2019-03-29T13:34:39.538Z,57.30
2019-03-29T13:37:08.083Z,62.80
2019-03-29T13:39:36.899Z,57.40
2019-03-29T13:42:05.442Z,56.00
2019-03-29T13:44:33.891Z,49.70
2019-03-29T13:47:02.375Z,47.20
2019-03-29T13:49:31.239Z,44.50
2019-03-29T13:51:59.715Z,57.40
2019-03-29T13:54:28.172Z,55.00
2019-03-29T13:56:56.651Z,56.80
2019-03-29T13:59:25.179Z,59.50
2019-03-29T14:01:54.084Z,52.90
2019-03-29T14:04:22.615Z,60.10
2019-03-29T14:06:51.091Z,60.40
2019-03-29T14:09:19.864Z,57.00
2019-03-29T14:11:48.407Z,54.30
2019-03-29T14:14:17.236Z,52.80
2019-03-29T14:16:45.836Z,54.40
2019-03-29T14:19:14.383Z,59.60
2019-03-29T14:21:43.202Z,59.70
2019-03-29T14:24:11.658Z,61.30
2019-03-29T14:26:40.484Z,59.20
2019-03-29T14:29:09.036Z,64.00
2019-03-29T14:31:37.484Z,54.80
2019-03-29T14:34:05.963Z,53.60
2019-03-29T14:36:34.671Z,57.90
2019-03-29T14:39:03.148Z,57.60
2019-03-29T14:41:31.610Z,53.00
2019-03-29T14:44:00.103Z,50.60
2019-03-29T14:46:28.986Z,54.50
2019-03-29T14:48:57.529Z,50.00
2019-03-29T14:51:26.263Z,53.30
2019-03-29T14:53:55.047Z,51.40
2019-03-29T14:56:23.848Z,53.10
2019-03-29T14:58:52.382Z,56.90
2019-03-29T15:01:21.125Z,53.60
2019-03-29T15:03:49.602Z,57.30
2019-03-29T15:06:18.059Z,58.30
2019-03-29T15:08:49.635Z,60.00
2019-03-29T15:11:22.475Z,52.90
2019-03-29T15:13:47.235Z,50.20
2019-03-29T15:16:16.034Z,48.50
2019-03-29T15:18:44.502Z,50.70
2019-03-29T15:21:12.962Z,53.70
2019-03-29T15:23:41.514Z,54.60
2019-03-29T15:26:10.285Z,50.50
2019-03-29T15:28:39.078Z,51.70
2019-03-29T15:31:07.971Z,50.40
2019-03-29T15:33:36.450Z,50.40
2019-03-29T15:36:04.980Z,53.90
2019-03-29T15:38:33.449Z,53.20
2019-03-29T15:41:01.976Z,51.30
2019-03-29T15:43:30.812Z,50.60
2019-03-29T15:45:59.707Z,50.00
2019-03-29T15:48:28.497Z,51.10
2019-03-29T15:50:56.948Z,49.90
2019-03-29T15:53:25.434Z,49.50
2019-03-29T15:55:54.263Z,51.90
2019-03-29T15:58:22.748Z,54.50
2019-03-29T16:00:51.545Z,54.50
2019-03-29T16:03:20.337Z,54.00
2019-03-29T16:05:48.813Z,57.10
2019-03-29T16:08:17.611Z,54.20
2019-03-29T16:10:46.130Z,54.90
2019-03-29T16:13:14.996Z,55.50
2019-03-29T16:15:43.468Z,57.50
2019-03-29T16:18:12.288Z,59.20
2019-03-29T16:20:40.827Z,57.30
2019-03-29T16:23:09.652Z,56.40
2019-03-29T16:25:38.204Z,56.40
2019-03-29T16:28:07.039Z,56.70
2019-03-29T16:30:35.841Z,58.40
2019-03-29T16:33:04.722Z,60.60
2019-03-29T16:35:33.199Z,60.70
2019-03-29T16:38:01.719Z,60.70
2019-03-29T16:40:31.150Z,60.80
2019-03-29T16:43:00.098Z,62.70
2019-03-29T16:45:28.887Z,66.90
2019-03-29T16:47:57.689Z,71.20
2019-03-29T16:50:26.323Z,75.00
2019-03-29T16:52:55.163Z,78.50
2019-03-29T16:55:23.967Z,80.20
2019-03-29T16:57:52.423Z,82.90
2019-03-29T17:00:20.904Z,86.40
2019-03-29T17:03:04.616Z,89.70
2019-03-29T17:05:33.091Z,90.40
2019-03-29T17:08:04.973Z,91.80
2019-03-29T17:10:31.828Z,91.60
2019-03-29T17:13:00.612Z,92.60
2019-03-29T17:15:29.068Z,93.80
2019-03-29T17:17:57.839Z,93.90
2019-03-29T17:20:26.300Z,94.10
2019-03-29T17:22:55.108Z,94.70
2019-03-29T17:25:24.958Z,95.90
2019-03-29T17:27:53.724Z,96.10
2019-03-29T17:30:37.224Z,96.90
2019-03-29T17:33:06.149Z,97.10
2019-03-29T17:36:05.297Z,96.90
2019-03-29T17:38:33.834Z,97.40
2019-03-29T17:41:02.718Z,97.60
2019-03-29T17:43:31.508Z,98.30
2019-03-29T17:46:00.299Z,98.30
2019-03-29T17:48:29.096Z,98.40
2019-03-29T17:50:57.543Z,99.00
2019-03-29T17:53:26.015Z,99.20
2019-03-29T17:55:54.755Z,99.90
2019-03-29T17:58:23.653Z,99.90
2019-03-29T18:00:52.444Z,99.90
2019-03-29T18:03:20.982Z,99.90
2019-03-29T18:05:49.695Z,99.90
2019-03-29T18:08:18.272Z,99.90
2019-03-29T18:10:46.732Z,99.90
2019-03-29T18:13:15.492Z,99.90
2019-03-29T18:15:44.123Z,99.90
2019-03-29T18:18:13.207Z,99.90
2019-03-29T18:20:42.082Z,99.90
2019-03-29T18:23:10.559Z,99.90
2019-03-29T18:25:39.024Z,99.90
2019-03-29T18:28:07.509Z,99.90
2019-03-29T18:30:40.828Z,99.90
2019-03-29T18:33:09.447Z,99.90
2019-03-29T18:35:38.079Z,99.90
2019-03-29T18:38:06.563Z,99.90
2019-03-29T18:40:35.024Z,99.90
2019-03-29T18:43:03.563Z,99.90
2019-03-29T18:45:32.023Z,99.90
2019-03-29T18:48:00.501Z,99.90
2019-03-29T18:50:29.245Z,99.90
2019-03-29T18:52:57.789Z,99.90
2019-03-29T18:55:26.254Z,99.90
2019-03-29T18:57:54.728Z,99.90
2019-03-29T19:00:31.937Z,99.90
2019-03-29T19:03:20.104Z,99.90
2019-03-29T19:05:48.564Z,99.90
2019-03-29T19:08:17.384Z,99.90
2019-03-29T19:10:46.171Z,99.90
2019-03-29T19:13:16.403Z,99.90
2019-03-29T19:15:44.867Z,99.90
2019-03-29T19:18:13.351Z,99.90
2019-03-29T19:20:41.810Z,99.90
2019-03-29T19:23:10.351Z,99.90
2019-03-29T19:25:39.142Z,99.90
2019-03-29T19:28:07.679Z,99.90
2019-03-29T19:30:36.134Z,99.90
2019-03-29T19:33:05.101Z,99.90
2019-03-29T19:35:34.002Z,99.90
2019-03-29T19:38:02.476Z,99.90
2019-03-29T19:40:31.012Z,99.90
2019-03-29T19:42:59.763Z,99.90
2019-03-29T19:45:28.215Z,99.90
2019-03-29T19:47:56.688Z,99.90
2019-03-29T19:50:25.141Z,99.90
2019-03-29T19:52:53.705Z,99.90
2019-03-29T19:55:22.499Z,99.90
2019-03-29T19:57:50.994Z,99.90
2019-03-29T20:00:21.319Z,99.90
2019-03-29T20:02:49.842Z,99.90
2019-03-29T20:05:26.434Z,99.90
2019-03-29T20:07:56.091Z,99.90
2019-03-29T20:10:24.755Z,99.90
2019-03-29T20:13:08.309Z,99.90
2019-03-29T20:15:56.108Z,99.90
2019-03-29T20:18:24.587Z,99.90
2019-03-29T20:20:53.046Z,99.90
2019-03-29T20:23:21.591Z,99.90
2019-03-29T20:25:57.856Z,99.90
2019-03-29T20:28:26.339Z,99.90
2019-03-29T20:30:55.057Z,99.90
2019-03-29T20:33:23.603Z,99.90
2019-03-29T20:35:52.061Z,99.90
2019-03-29T20:38:20.897Z,99.90
2019-03-29T20:40:49.351Z,99.90
2019-03-29T20:43:18.176Z,99.90
2019-03-29T20:45:46.968Z,99.90
2019-03-29T20:48:15.440Z,99.90
2019-03-29T20:50:44.356Z,99.90
2019-03-29T20:53:12.897Z,99.90
2019-03-29T20:55:41.444Z,99.90
2019-03-29T20:58:10.319Z,99.90
2019-03-29T21:00:38.800Z,99.90
2019-03-29T21:03:07.257Z,99.90
2019-03-29T21:05:35.731Z,99.90
2019-03-29T21:08:19.450Z,99.90
2019-03-29T21:10:55.462Z,99.90
2019-03-29T21:13:18.387Z,99.90
2019-03-29T21:15:46.863Z,99.90
2019-03-29T21:18:17.468Z,99.90
2019-03-29T21:20:45.523Z,99.90
2019-03-29T21:23:13.979Z,99.90
2019-03-29T21:25:42.804Z,99.90
2019-03-29T21:28:11.263Z,99.90
2019-03-29T21:30:39.748Z,99.90
2019-03-29T21:33:08.563Z,99.90
2019-03-29T21:35:37.035Z,99.90
2019-03-29T21:38:05.502Z,99.90
2019-03-29T21:40:34.043Z,99.90
2019-03-29T21:43:02.591Z,99.90
2019-03-29T21:45:31.067Z,99.90
2019-03-29T21:48:09.977Z,99.90
2019-03-29T21:50:30.093Z,99.90
2019-03-29T21:52:58.911Z,99.90
2019-03-29T21:55:27.387Z,99.90
2019-03-29T21:57:56.287Z,99.90
2019-03-29T22:00:24.766Z,99.90
2019-03-29T22:02:53.672Z,99.90
2019-03-29T22:05:22.210Z,99.90
2019-03-29T22:07:50.952Z,99.90
2019-03-29T22:10:19.852Z,99.90
2019-03-29T22:12:48.739Z,99.90
2019-03-29T22:15:17.288Z,99.90
2019-03-29T22:17:45.742Z,99.90
2019-03-29T22:20:14.203Z,99.90
2019-03-29T22:22:42.688Z,99.90
2019-03-29T22:25:11.587Z,99.90
2019-03-29T22:27:40.484Z,99.90
2019-03-29T22:30:10.499Z,99.90
2019-03-29T22:32:39.283Z,99.90
2019-03-29T22:35:08.294Z,99.90
2019-03-29T22:37:36.908Z,99.90
2019-03-29T22:40:07.980Z,99.90
2019-03-29T22:42:36.817Z,99.90
2019-03-29T22:45:07.798Z,99.90
2019-03-29T22:47:36.659Z,99.90
2019-03-29T22:50:06.782Z,99.90
2019-03-29T22:52:35.322Z,99.90
2019-03-29T22:55:05.818Z,99.90
2019-03-29T22:57:34.357Z,99.90
2019-03-29T23:00:03.843Z,99.90
2019-03-29T23:02:32.680Z,99.90
2019-03-29T23:05:01.216Z,99.90
2019-03-29T23:07:29.763Z,99.90
2019-03-29T23:09:58.225Z,99.90
2019-03-29T23:12:26.709Z,99.90
2019-03-29T23:14:55.244Z,99.90
2019-03-29T23:17:24.011Z,99.90
2019-03-29T23:19:52.803Z,99.90
2019-03-29T23:22:21.279Z,99.90
2019-03-29T23:24:49.739Z,99.90
2019-03-29T23:27:18.211Z,99.90
2019-03-29T23:29:46.676Z,99.90
2019-03-29T23:32:15.156Z,99.90
2019-03-29T23:34:43.697Z,99.90
2019-03-29T23:37:12.248Z,99.90
2019-03-29T23:39:40.708Z,99.90
2019-03-29T23:42:09.479Z,99.90
2019-03-29T23:44:38.273Z,99.90
2019-03-29T23:47:07.059Z,99.90
2019-03-29T23:49:35.539Z,99.90
2019-03-29T23:52:03.991Z,99.90
2019-03-29T23:54:32.466Z,99.90
2019-03-29T23:57:01.216Z,99.90
2019-03-29T23:59:29.999Z,99.90
